sensor_id;sensor_type;location;lat;lon;timestamp;pressure;altitude;pressure_sealevel;temperature;humidity
40205;BME280;26963;42.666;23.366;2023-04-04T00:00:09;93483.81;;;9.75;75.66
40205;BME280;26963;42.666;23.366;2023-04-04T00:02:36;93520.13;;;10.06;76.28
40205;BME280;26963;42.666;23.366;2023-04-04T00:05:02;93510.97;;;10.07;76.16
40205;BME280;26963;42.666;23.366;2023-04-04T00:07:31;93514.78;;;10.06;75.57
40205;BME280;26963;42.666;23.366;2023-04-04T00:09:56;93510.06;;;10.03;76.56
40205;BME280;26963;42.666;23.366;2023-04-04T00:12:22;93512.22;;;10.09;75.44
40205;BME280;26963;42.666;23.366;2023-04-04T00:14:49;93509.16;;;9.99;75.09
40205;BME280;26963;42.666;23.366;2023-04-04T00:17:15;93508.69;;;9.96;76.69
40205;BME280;26963;42.666;23.366;2023-04-04T00:19:40;93520.56;;;10.08;76.00
40205;BME280;26963;42.666;23.366;2023-04-04T00:22:06;93513.84;;;10.02;75.84
40205;BME280;26963;42.666;23.366;2023-04-04T00:24:33;93460.44;;;9.72;76.82
40205;BME280;26963;42.666;23.366;2023-04-04T00:26:58;93364.63;;;9.10;75.51
40205;BME280;26963;42.666;23.366;2023-04-04T00:29:24;93486.25;;;9.89;76.04
40205;BME280;26963;42.666;23.366;2023-04-04T00:31:50;93490.25;;;10.04;74.73
40205;BME280;26963;42.666;23.366;2023-04-04T00:34:15;93482.28;;;9.95;75.23
40205;BME280;26963;42.666;23.366;2023-04-04T00:36:41;93511.53;;;10.21;75.72
40205;BME280;26963;42.666;23.366;2023-04-04T00:39:07;93497.75;;;10.10;74.98
40205;BME280;26963;42.666;23.366;2023-04-04T00:41:32;93519.88;;;10.20;74.79
40205;BME280;26963;42.666;23.366;2023-04-04T00:43:59;93496.53;;;10.08;75.88
40205;BME280;26963;42.666;23.366;2023-04-04T00:46:26;93428.44;;;9.63;75.58
40205;BME280;26963;42.666;23.366;2023-04-04T00:48:52;93484.91;;;10.04;75.43
40205;BME280;26963;42.666;23.366;2023-04-04T00:51:18;93434.34;;;9.69;75.35
40205;BME280;26963;42.666;23.366;2023-04-04T00:53:45;93478.00;;;10.03;75.83
40205;BME280;26963;42.666;23.366;2023-04-04T00:56:12;93487.69;;;10.16;77.06
40205;BME280;26963;42.666;23.366;2023-04-04T00:58:40;93335.69;;;9.21;75.93
40205;BME280;26963;42.666;23.366;2023-04-04T01:01:06;93484.16;;;10.24;75.07
40205;BME280;26963;42.666;23.366;2023-04-04T01:03:32;93475.41;;;10.15;73.55
40205;BME280;26963;42.666;23.366;2023-04-04T01:06:00;93510.75;;;10.21;72.68
40205;BME280;26963;42.666;23.366;2023-04-04T01:08:27;93495.22;;;10.14;72.67
40205;BME280;26963;42.666;23.366;2023-04-04T01:10:55;93500.91;;;10.12;72.13
40205;BME280;26963;42.666;23.366;2023-04-04T01:13:22;93486.75;;;10.12;73.68
40205;BME280;26963;42.666;23.366;2023-04-04T01:15:48;93468.22;;;10.07;75.36
40205;BME280;26963;42.666;23.366;2023-04-04T01:18:16;93492.63;;;10.26;73.60
40205;BME280;26963;42.666;23.366;2023-04-04T01:20:56;93493.53;;;10.31;75.02
40205;BME280;26963;42.666;23.366;2023-04-04T01:23:31;93508.59;;;10.44;75.25
40205;BME280;26963;42.666;23.366;2023-04-04T01:26:01;93517.44;;;10.36;73.27
40205;BME280;26963;42.666;23.366;2023-04-04T01:28:30;93500.19;;;10.24;74.08
40205;BME280;26963;42.666;23.366;2023-04-04T01:30:58;93513.34;;;10.38;75.37
40205;BME280;26963;42.666;23.366;2023-04-04T01:33:28;93359.06;;;9.24;74.31
40205;BME280;26963;42.666;23.366;2023-04-04T01:39:09;93399.69;;;9.30;74.91
40205;BME280;26963;42.666;23.366;2023-04-04T01:41:33;93506.63;;;10.02;74.45
40205;BME280;26963;42.666;23.366;2023-04-04T01:43:59;93500.75;;;9.79;75.20
40205;BME280;26963;42.666;23.366;2023-04-04T01:46:25;93453.41;;;9.58;76.63
40205;BME280;26963;42.666;23.366;2023-04-04T01:48:51;93504.19;;;9.88;76.70
40205;BME280;26963;42.666;23.366;2023-04-04T01:51:18;93484.00;;;9.70;76.44
40205;BME280;26963;42.666;23.366;2023-04-04T01:53:43;93493.41;;;9.76;75.04
40205;BME280;26963;42.666;23.366;2023-04-04T01:56:09;93318.66;;;8.66;75.02
40205;BME280;26963;42.666;23.366;2023-04-04T01:58:35;93437.47;;;9.41;75.07
40205;BME280;26963;42.666;23.366;2023-04-04T02:01:00;93460.44;;;9.72;74.72
40205;BME280;26963;42.666;23.366;2023-04-04T02:03:26;93466.94;;;9.53;75.38
40205;BME280;26963;42.666;23.366;2023-04-04T02:05:51;93467.09;;;9.57;74.07
40205;BME280;26963;42.666;23.366;2023-04-04T02:08:18;93468.53;;;9.54;74.80
40205;BME280;26963;42.666;23.366;2023-04-04T02:10:44;93468.53;;;9.54;74.22
40205;BME280;26963;42.666;23.366;2023-04-04T02:13:10;93491.09;;;9.66;73.18
40205;BME280;26963;42.666;23.366;2023-04-04T02:15:35;93464.75;;;9.55;73.71
40205;BME280;26963;42.666;23.366;2023-04-04T02:18:01;93470.09;;;9.55;72.61
40205;BME280;26963;42.666;23.366;2023-04-04T02:20:26;93266.59;;;8.12;72.73
40205;BME280;26963;42.666;23.366;2023-04-04T02:22:53;93428.44;;;9.24;72.88
40205;BME280;26963;42.666;23.366;2023-04-04T02:25:23;93443.19;;;9.30;71.73
40205;BME280;26963;42.666;23.366;2023-04-04T02:27:48;93453.63;;;9.44;72.72
40205;BME280;26963;42.666;23.366;2023-04-04T02:30:15;93472.75;;;9.55;70.92
40205;BME280;26963;42.666;23.366;2023-04-04T02:32:40;93308.03;;;8.40;71.77
40205;BME280;26963;42.666;23.366;2023-04-04T02:35:07;93397.13;;;9.04;71.45
40205;BME280;26963;42.666;23.366;2023-04-04T02:37:32;93480.78;;;9.55;70.71
40205;BME280;26963;42.666;23.366;2023-04-04T02:39:58;93462.78;;;9.35;70.21
40205;BME280;26963;42.666;23.366;2023-04-04T02:42:23;93445.72;;;9.18;70.26
40205;BME280;26963;42.666;23.366;2023-04-04T02:44:49;93396.56;;;8.89;71.18
40205;BME280;26963;42.666;23.366;2023-04-04T02:47:14;93432.13;;;9.11;71.51
40205;BME280;26963;42.666;23.366;2023-04-04T02:49:41;93475.16;;;9.48;72.45
40205;BME280;26963;42.666;23.366;2023-04-04T02:52:06;93478.91;;;9.47;72.31
40205;BME280;26963;42.666;23.366;2023-04-04T02:54:32;93446.94;;;9.29;72.21
40205;BME280;26963;42.666;23.366;2023-04-04T02:56:58;93477.50;;;9.50;72.59
40205;BME280;26963;42.666;23.366;2023-04-04T02:59:23;93472.47;;;9.48;72.95
40205;BME280;26963;42.666;23.366;2023-04-04T03:01:50;93460.22;;;9.47;72.29
40205;BME280;26963;42.666;23.366;2023-04-04T03:04:15;93463.81;;;9.51;73.04
40205;BME280;26963;42.666;23.366;2023-04-04T03:06:43;93394.84;;;9.23;73.15
40205;BME280;26963;42.666;23.366;2023-04-04T03:09:09;93466.22;;;9.74;71.50
40205;BME280;26963;42.666;23.366;2023-04-04T03:11:35;93468.16;;;9.65;71.87
40205;BME280;26963;42.666;23.366;2023-04-04T03:14:01;93463.09;;;9.72;71.58
40205;BME280;26963;42.666;23.366;2023-04-04T03:16:30;93407.53;;;9.35;71.61
40205;BME280;26963;42.666;23.366;2023-04-04T03:18:55;93471.06;;;9.81;72.18
40205;BME280;26963;42.666;23.366;2023-04-04T03:21:21;93480.97;;;9.80;70.67
40205;BME280;26963;42.666;23.366;2023-04-04T03:23:46;93449.28;;;9.70;70.45
40205;BME280;26963;42.666;23.366;2023-04-04T03:26:12;93406.38;;;9.45;70.23
40205;BME280;26963;42.666;23.366;2023-04-04T03:28:38;93422.28;;;9.62;71.11
40205;BME280;26963;42.666;23.366;2023-04-04T03:31:04;93460.59;;;9.96;72.63
40205;BME280;26963;42.666;23.366;2023-04-04T03:33:31;93456.34;;;9.95;71.76
40205;BME280;26963;42.666;23.366;2023-04-04T03:35:58;93482.97;;;10.13;71.66
40205;BME280;26963;42.666;23.366;2023-04-04T03:38:24;93413.75;;;9.78;72.25
40205;BME280;26963;42.666;23.366;2023-04-04T03:40:50;93453.94;;;10.03;73.47
40205;BME280;26963;42.666;23.366;2023-04-04T03:43:15;93424.38;;;9.87;73.46
40205;BME280;26963;42.666;23.366;2023-04-04T03:45:41;93475.03;;;10.25;73.81
40205;BME280;26963;42.666;23.366;2023-04-04T03:48:09;93479.53;;;10.34;72.39
40205;BME280;26963;42.666;23.366;2023-04-04T03:50:34;93475.31;;;10.33;71.58
40205;BME280;26963;42.666;23.366;2023-04-04T03:53:01;93460.00;;;10.12;73.12
40205;BME280;26963;42.666;23.366;2023-04-04T03:55:26;93483.91;;;10.38;74.03
40205;BME280;26963;42.666;23.366;2023-04-04T03:57:52;93455.84;;;10.23;72.93
40205;BME280;26963;42.666;23.366;2023-04-04T04:00:18;93486.25;;;10.40;71.52
40205;BME280;26963;42.666;23.366;2023-04-04T04:02:43;93450.50;;;10.23;72.55
40205;BME280;26963;42.666;23.366;2023-04-04T04:05:09;93468.50;;;10.35;72.13
40205;BME280;26963;42.666;23.366;2023-04-04T04:07:34;93406.81;;;9.98;72.61
40205;BME280;26963;42.666;23.366;2023-04-04T04:10:00;93471.78;;;10.41;72.71
40205;BME280;26963;42.666;23.366;2023-04-04T04:12:26;93479.50;;;10.42;73.28
40205;BME280;26963;42.666;23.366;2023-04-04T04:14:51;93433.63;;;10.10;73.49
40205;BME280;26963;42.666;23.366;2023-04-04T04:17:17;93436.91;;;10.16;72.53
40205;BME280;26963;42.666;23.366;2023-04-04T04:19:42;93407.22;;;9.88;72.00
40205;BME280;26963;42.666;23.366;2023-04-04T04:22:08;93473.22;;;10.17;73.57
40205;BME280;26963;42.666;23.366;2023-04-04T04:24:34;93488.97;;;10.10;73.50
40205;BME280;26963;42.666;23.366;2023-04-04T04:27:00;93468.34;;;9.89;73.93
40205;BME280;26963;42.666;23.366;2023-04-04T04:29:25;93446.78;;;9.65;74.99
40205;BME280;26963;42.666;23.366;2023-04-04T04:31:51;93449.28;;;9.70;75.76
40205;BME280;26963;42.666;23.366;2023-04-04T04:34:17;93498.75;;;10.06;75.83
40205;BME280;26963;42.666;23.366;2023-04-04T04:36:42;93497.19;;;10.05;76.02
40205;BME280;26963;42.666;23.366;2023-04-04T04:39:08;93493.50;;;10.09;74.96
40205;BME280;26963;42.666;23.366;2023-04-04T04:41:34;93502.53;;;10.26;76.21
40205;BME280;26963;42.666;23.366;2023-04-04T04:43:59;93499.75;;;10.22;76.36
40205;BME280;26963;42.666;23.366;2023-04-04T04:46:25;93502.97;;;10.37;76.55
40205;BME280;26963;42.666;23.366;2023-04-04T04:48:50;93492.91;;;10.34;76.48
40205;BME280;26963;42.666;23.366;2023-04-04T04:51:16;93451.84;;;10.17;76.11
40205;BME280;26963;42.666;23.366;2023-04-04T04:53:41;93496.06;;;10.57;75.02
40205;BME280;26963;42.666;23.366;2023-04-04T04:56:07;93501.53;;;10.60;75.65
40205;BME280;26963;42.666;23.366;2023-04-04T04:58:33;93475.84;;;10.47;74.86
40205;BME280;26963;42.666;23.366;2023-04-04T05:00:58;93470.06;;;10.45;73.74
40205;BME280;26963;42.666;23.366;2023-04-04T05:03:24;93467.13;;;10.38;72.81
40205;BME280;26963;42.666;23.366;2023-04-04T05:05:49;93523.03;;;10.85;73.26
40205;BME280;26963;42.666;23.366;2023-04-04T05:08:15;93531.78;;;10.95;72.66
40205;BME280;26963;42.666;23.366;2023-04-04T05:10:41;93511.91;;;10.83;73.02
40205;BME280;26963;42.666;23.366;2023-04-04T05:13:07;93535.38;;;10.99;73.45
40205;BME280;26963;42.666;23.366;2023-04-04T05:15:34;93528.44;;;10.98;73.61
40205;BME280;26963;42.666;23.366;2023-04-04T05:17:59;93529.81;;;11.04;73.62
40205;BME280;26963;42.666;23.366;2023-04-04T05:20:25;93536.75;;;11.05;73.72
40205;BME280;26963;42.666;23.366;2023-04-04T05:22:51;93528.25;;;11.03;72.55
40205;BME280;26963;42.666;23.366;2023-04-04T05:25:17;93532.75;;;11.11;71.72
40205;BME280;26963;42.666;23.366;2023-04-04T05:27:45;93534.09;;;11.17;71.64
40205;BME280;26963;42.666;23.366;2023-04-04T05:30:12;93529.66;;;11.21;72.33
40205;BME280;26963;42.666;23.366;2023-04-04T05:32:38;93529.66;;;11.21;72.26
40205;BME280;26963;42.666;23.366;2023-04-04T05:35:03;93514.03;;;11.23;72.46
40205;BME280;26963;42.666;23.366;2023-04-04T05:37:29;93564.63;;;11.50;71.69
40205;BME280;26963;42.666;23.366;2023-04-04T05:39:54;93552.44;;;11.40;70.97
40205;BME280;26963;42.666;23.366;2023-04-04T05:42:20;93556.72;;;11.53;70.29
40205;BME280;26963;42.666;23.366;2023-04-04T05:44:46;93531.69;;;11.37;69.74
40205;BME280;26963;42.666;23.366;2023-04-04T05:47:11;93546.00;;;11.53;70.93
40205;BME280;26963;42.666;23.366;2023-04-04T05:49:37;93554.97;;;11.70;71.83
40205;BME280;26963;42.666;23.366;2023-04-04T05:52:02;93537.22;;;11.65;72.07
40205;BME280;26963;42.666;23.366;2023-04-04T05:54:28;93552.31;;;11.82;71.42
40205;BME280;26963;42.666;23.366;2023-04-04T05:56:53;93554.78;;;11.87;71.02
40205;BME280;26963;42.666;23.366;2023-04-04T05:59:20;93510.09;;;11.54;70.42
40205;BME280;26963;42.666;23.366;2023-04-04T06:01:46;93554.78;;;11.87;69.68
40205;BME280;26963;42.666;23.366;2023-04-04T06:04:11;93552.56;;;11.89;69.13
40205;BME280;26963;42.666;23.366;2023-04-04T06:06:37;93420.53;;;11.06;69.28
40205;BME280;26963;42.666;23.366;2023-04-04T06:09:03;93496.03;;;11.57;69.64
40205;BME280;26963;42.666;23.366;2023-04-04T06:11:28;93555.72;;;12.04;68.79
40205;BME280;26963;42.666;23.366;2023-04-04T06:13:54;93561.09;;;12.16;68.16
40205;BME280;26963;42.666;23.366;2023-04-04T06:16:20;93550.69;;;12.15;67.76
40205;BME280;26963;42.666;23.366;2023-04-04T06:18:46;93555.94;;;12.11;67.49
40205;BME280;26963;42.666;23.366;2023-04-04T06:21:12;93392.22;;;11.05;67.17
40205;BME280;26963;42.666;23.366;2023-04-04T06:23:39;93570.66;;;12.30;68.40
40205;BME280;26963;42.666;23.366;2023-04-04T06:26:05;93575.03;;;12.34;68.23
40205;BME280;26963;42.666;23.366;2023-04-04T06:28:32;93558.41;;;12.29;68.49
40205;BME280;26963;42.666;23.366;2023-04-04T06:30:58;93578.06;;;12.45;68.28
40205;BME280;26963;42.666;23.366;2023-04-04T06:33:23;93580.50;;;12.38;67.13
40205;BME280;26963;42.666;23.366;2023-04-04T06:35:49;93587.09;;;12.40;67.06
40205;BME280;26963;42.666;23.366;2023-04-04T06:38:15;93529.38;;;12.06;67.87
40205;BME280;26963;42.666;23.366;2023-04-04T06:40:41;93599.50;;;12.45;67.63
40205;BME280;26963;42.666;23.366;2023-04-04T06:43:07;93576.47;;;12.19;67.16
40205;BME280;26963;42.666;23.366;2023-04-04T06:45:33;93603.75;;;12.34;67.96
40205;BME280;26963;42.666;23.366;2023-04-04T06:48:00;93602.41;;;12.15;65.98
40205;BME280;26963;42.666;23.366;2023-04-04T06:50:29;93619.59;;;12.02;64.00
40205;BME280;26963;42.666;23.366;2023-04-04T06:52:55;93607.69;;;11.78;63.79
40205;BME280;26963;42.666;23.366;2023-04-04T06:55:21;93635.09;;;11.63;60.96
40205;BME280;26963;42.666;23.366;2023-04-04T06:57:47;93643.13;;;11.50;61.79
40205;BME280;26963;42.666;23.366;2023-04-04T07:00:13;93649.53;;;11.37;62.07
40205;BME280;26963;42.666;23.366;2023-04-04T07:02:39;93593.06;;;10.87;62.12
40205;BME280;26963;42.666;23.366;2023-04-04T07:05:05;93661.59;;;11.22;62.47
40205;BME280;26963;42.666;23.366;2023-04-04T07:07:30;93672.38;;;11.13;61.22
40205;BME280;26963;42.666;23.366;2023-04-04T07:09:56;93666.22;;;10.91;61.83
40205;BME280;26963;42.666;23.366;2023-04-04T07:12:25;93695.22;;;10.89;61.57
40205;BME280;26963;42.666;23.366;2023-04-04T07:14:51;93627.81;;;10.45;63.06
40205;BME280;26963;42.666;23.366;2023-04-04T07:17:16;93594.94;;;10.06;61.25
40205;BME280;26963;42.666;23.366;2023-04-04T07:19:42;93709.59;;;10.76;61.08
40205;BME280;26963;42.666;23.366;2023-04-04T07:22:08;93661.19;;;10.30;61.44
40205;BME280;26963;42.666;23.366;2023-04-04T07:24:33;93715.16;;;10.71;60.38
40205;BME280;26963;42.666;23.366;2023-04-04T07:26:59;93685.84;;;10.44;59.72
40205;BME280;26963;42.666;23.366;2023-04-04T07:29:24;93714.91;;;10.55;58.55
40205;BME280;26963;42.666;23.366;2023-04-04T07:31:49;93720.28;;;10.46;58.73
40205;BME280;26963;42.666;23.366;2023-04-04T07:34:15;93736.63;;;10.53;56.85
40205;BME280;26963;42.666;23.366;2023-04-04T07:36:41;93741.03;;;10.49;58.29
40205;BME280;26963;42.666;23.366;2023-04-04T07:39:07;93736.03;;;10.39;56.53
40205;BME280;26963;42.666;23.366;2023-04-04T07:41:33;93742.16;;;10.31;58.07
40205;BME280;26963;42.666;23.366;2023-04-04T07:43:58;93695.56;;;9.93;57.65
40205;BME280;26963;42.666;23.366;2023-04-04T07:46:24;93737.03;;;10.08;57.25
40205;BME280;26963;42.666;23.366;2023-04-04T07:48:51;93726.69;;;9.98;57.79
40205;BME280;26963;42.666;23.366;2023-04-04T07:51:17;93704.09;;;9.69;57.42
40205;BME280;26963;42.666;23.366;2023-04-04T07:53:44;93680.25;;;9.46;57.37
40205;BME280;26963;42.666;23.366;2023-04-04T07:56:10;93709.44;;;9.69;58.34
40205;BME280;26963;42.666;23.366;2023-04-04T07:58:35;93722.47;;;9.70;58.52
40205;BME280;26963;42.666;23.366;2023-04-04T08:01:02;93748.06;;;9.80;56.58
40205;BME280;26963;42.666;23.366;2023-04-04T08:03:28;93759.84;;;9.88;58.79
40205;BME280;26963;42.666;23.366;2023-04-04T08:05:59;93748.72;;;9.77;58.33
40205;BME280;26963;42.666;23.366;2023-04-04T08:08:25;93698.31;;;9.40;57.00
40205;BME280;26963;42.666;23.366;2023-04-04T08:10:51;93771.03;;;9.81;55.93
40205;BME280;26963;42.666;23.366;2023-04-04T08:13:17;93766.94;;;9.75;56.30
40205;BME280;26963;42.666;23.366;2023-04-04T08:15:42;93781.72;;;9.81;57.81
40205;BME280;26963;42.666;23.366;2023-04-04T08:18:08;93774.34;;;9.78;55.46
40205;BME280;26963;42.666;23.366;2023-04-04T08:20:33;93750.59;;;9.41;55.06
40205;BME280;26963;42.666;23.366;2023-04-04T08:23:00;93800.72;;;9.62;56.20
40205;BME280;26963;42.666;23.366;2023-04-04T08:25:25;93770.06;;;9.33;54.28
40205;BME280;26963;42.666;23.366;2023-04-04T08:27:51;93788.56;;;9.29;55.93
40205;BME280;26963;42.666;23.366;2023-04-04T08:30:17;93811.34;;;9.27;56.97
40205;BME280;26963;42.666;23.366;2023-04-04T08:32:43;93809.13;;;9.11;56.76
40205;BME280;26963;42.666;23.366;2023-04-04T08:35:10;93802.31;;;8.96;58.25
40205;BME280;26963;42.666;23.366;2023-04-04T08:37:36;93824.63;;;9.01;57.52
40205;BME280;26963;42.666;23.366;2023-04-04T08:40:03;93795.81;;;8.80;58.36
40205;BME280;26963;42.666;23.366;2023-04-04T08:42:31;93809.16;;;8.80;57.93
40205;BME280;26963;42.666;23.366;2023-04-04T08:45:02;93805.69;;;8.71;57.53
40205;BME280;26963;42.666;23.366;2023-04-04T08:47:30;93814.19;;;8.73;58.66
40205;BME280;26963;42.666;23.366;2023-04-04T08:49:58;93802.22;;;8.61;58.90
40205;BME280;26963;42.666;23.366;2023-04-04T08:52:26;93833.78;;;8.77;57.86
40205;BME280;26963;42.666;23.366;2023-04-04T08:54:56;93836.47;;;8.77;56.83
40205;BME280;26963;42.666;23.366;2023-04-04T08:57:25;93836.72;;;8.67;57.39
40205;BME280;26963;42.666;23.366;2023-04-04T08:59:52;93837.19;;;8.69;59.42
40205;BME280;26963;42.666;23.366;2023-04-04T09:05:29;93704.69;;;7.75;56.79
40205;BME280;26963;42.666;23.366;2023-04-04T09:07:55;93843.34;;;8.69;56.49
40205;BME280;26963;42.666;23.366;2023-04-04T09:10:21;93847.41;;;8.67;57.32
40205;BME280;26963;42.666;23.366;2023-04-04T09:12:49;93867.50;;;8.73;57.99
40205;BME280;26963;42.666;23.366;2023-04-04T09:15:15;93815.91;;;8.46;60.29
40205;BME280;26963;42.666;23.366;2023-04-04T09:17:41;93846.91;;;8.64;58.56
40205;BME280;26963;42.666;23.366;2023-04-04T09:22:58;93863.13;;;8.77;57.67
40205;BME280;26963;42.666;23.366;2023-04-04T09:25:23;93843.88;;;8.57;57.52
40205;BME280;26963;42.666;23.366;2023-04-04T09:27:51;93876.34;;;8.82;59.59
40205;BME280;26963;42.666;23.366;2023-04-04T09:30:17;93865.03;;;8.85;57.26
40205;BME280;26963;42.666;23.366;2023-04-04T09:32:43;93872.13;;;8.90;55.42
40205;BME280;26963;42.666;23.366;2023-04-04T09:35:10;93849.03;;;8.85;56.39
40205;BME280;26963;42.666;23.366;2023-04-04T09:37:39;93858.34;;;8.96;57.53
40205;BME280;26963;42.666;23.366;2023-04-04T09:40:08;93856.38;;;9.11;57.52
40205;BME280;26963;42.666;23.366;2023-04-04T09:42:34;93850.69;;;9.04;56.88
40205;BME280;26963;42.666;23.366;2023-04-04T09:44:59;93873.69;;;9.22;56.96
40205;BME280;26963;42.666;23.366;2023-04-04T09:47:29;93850.13;;;9.24;57.19
40205;BME280;26963;42.666;23.366;2023-04-04T09:50:01;93859.56;;;9.30;54.33
40205;BME280;26963;42.666;23.366;2023-04-04T09:52:31;93869.38;;;9.61;56.77
40205;BME280;26963;42.666;23.366;2023-04-04T09:55:03;93849.75;;;9.75;54.68
40205;BME280;26963;42.666;23.366;2023-04-04T09:57:34;93854.00;;;9.93;55.27
40205;BME280;26963;42.666;23.366;2023-04-04T10:00:04;93851.16;;;10.16;54.12
40205;BME280;26963;42.666;23.366;2023-04-04T10:02:32;93799.75;;;9.93;53.34
40205;BME280;26963;42.666;23.366;2023-04-04T10:04:58;93799.75;;;9.93;53.85
40205;BME280;26963;42.666;23.366;2023-04-04T10:07:31;93833.56;;;10.15;52.39
40205;BME280;26963;42.666;23.366;2023-04-04T10:10:01;93854.00;;;10.37;52.71
40205;BME280;26963;42.666;23.366;2023-04-04T10:12:29;93879.13;;;10.63;53.11
40205;BME280;26963;42.666;23.366;2023-04-04T10:14:56;93867.97;;;10.52;50.16
40205;BME280;26963;42.666;23.366;2023-04-04T10:17:23;93827.13;;;10.16;52.07
40205;BME280;26963;42.666;23.366;2023-04-04T10:19:48;93885.44;;;10.49;52.33
40205;BME280;26963;42.666;23.366;2023-04-04T10:22:15;93906.22;;;10.43;53.94
40205;BME280;26963;42.666;23.366;2023-04-04T10:24:41;93901.97;;;10.34;52.68
40205;BME280;26963;42.666;23.366;2023-04-04T10:27:07;93895.81;;;10.16;52.39
40205;BME280;26963;42.666;23.366;2023-04-04T10:29:32;93899.59;;;10.06;52.21
40205;BME280;26963;42.666;23.366;2023-04-04T10:32:01;93879.44;;;9.82;53.07
40205;BME280;26963;42.666;23.366;2023-04-04T10:34:43;93916.22;;;9.94;53.25
40205;BME280;26963;42.666;23.366;2023-04-04T10:37:13;93896.09;;;9.79;53.17
40205;BME280;26963;42.666;23.366;2023-04-04T10:40:00;93743.25;;;8.72;52.66
40205;BME280;26963;42.666;23.366;2023-04-04T10:42:31;93902.41;;;9.83;53.29
40205;BME280;26963;42.666;23.366;2023-04-04T10:45:00;93889.47;;;9.68;52.91
40205;BME280;26963;42.666;23.366;2023-04-04T10:47:29;93922.50;;;9.81;53.59
40205;BME280;26963;42.666;23.366;2023-04-04T10:49:55;93908.81;;;9.73;53.64
40205;BME280;26963;42.666;23.366;2023-04-04T10:52:23;93910.22;;;9.71;53.16
40205;BME280;26963;42.666;23.366;2023-04-04T10:54:51;93908.81;;;9.65;53.33
40205;BME280;26963;42.666;23.366;2023-04-04T10:57:19;93926.91;;;9.85;53.86
40205;BME280;26963;42.666;23.366;2023-04-04T11:00:15;93902.53;;;9.69;51.98
40205;BME280;26963;42.666;23.366;2023-04-04T11:02:57;93844.19;;;9.27;52.10
40205;BME280;26963;42.666;23.366;2023-04-04T11:05:31;93897.94;;;9.52;53.33
40205;BME280;26963;42.666;23.366;2023-04-04T11:08:05;93914.63;;;9.67;53.36
40205;BME280;26963;42.666;23.366;2023-04-04T11:10:42;93891.00;;;9.51;52.95
40205;BME280;26963;42.666;23.366;2023-04-04T11:13:16;93861.41;;;9.21;51.33
40205;BME280;26963;42.666;23.366;2023-04-04T11:21:09;93925.88;;;9.46;53.21
40205;BME280;26963;42.666;23.366;2023-04-04T11:26:34;93946.19;;;9.65;52.59
40205;BME280;26963;42.666;23.366;2023-04-04T11:29:01;93931.53;;;9.44;53.55
40205;BME280;26963;42.666;23.366;2023-04-04T11:31:52;93951.16;;;9.49;53.87
40205;BME280;26963;42.666;23.366;2023-04-04T11:34:31;93962.97;;;9.56;53.67
40205;BME280;26963;42.666;23.366;2023-04-04T11:36:57;93934.66;;;9.38;52.58
40205;BME280;26963;42.666;23.366;2023-04-04T11:39:30;93907.34;;;9.09;54.67
40205;BME280;26963;42.666;23.366;2023-04-04T11:44:32;93949.72;;;9.34;53.39
40205;BME280;26963;42.666;23.366;2023-04-04T11:47:08;93898.84;;;8.98;53.10
40205;BME280;26963;42.666;23.366;2023-04-04T11:49:36;93952.53;;;9.28;53.65
40205;BME280;26963;42.666;23.366;2023-04-04T11:52:04;93904.91;;;8.90;53.17
40205;BME280;26963;42.666;23.366;2023-04-04T11:54:31;93940.19;;;9.10;54.37
40205;BME280;26963;42.666;23.366;2023-04-04T11:56:57;93854.22;;;8.50;54.26
40205;BME280;26963;42.666;23.366;2023-04-04T11:59:30;93950.50;;;9.03;54.89
40205;BME280;26963;42.666;23.366;2023-04-04T12:01:56;93953.03;;;9.08;54.63
40205;BME280;26963;42.666;23.366;2023-04-04T12:04:25;93952.31;;;9.16;55.19
40205;BME280;26963;42.666;23.366;2023-04-04T12:06:53;93933.75;;;9.11;54.61
40205;BME280;26963;42.666;23.366;2023-04-04T12:09:19;93961.63;;;9.27;53.30
40205;BME280;26963;42.666;23.366;2023-04-04T12:11:48;93948.66;;;9.12;53.68
40205;BME280;26963;42.666;23.366;2023-04-04T12:14:16;93974.97;;;9.27;55.76
40205;BME280;26963;42.666;23.366;2023-04-04T12:16:47;93955.75;;;9.17;54.81
40205;BME280;26963;42.666;23.366;2023-04-04T12:19:13;93952.63;;;9.23;55.34
40205;BME280;26963;42.666;23.366;2023-04-04T12:21:39;93973.88;;;9.37;54.89
40205;BME280;26963;42.666;23.366;2023-04-04T12:24:08;93949.00;;;9.19;53.67
40205;BME280;26963;42.666;23.366;2023-04-04T12:26:38;93973.38;;;9.26;53.07
40205;BME280;26963;42.666;23.366;2023-04-04T12:29:05;93985.41;;;9.15;51.77
40205;BME280;26963;42.666;23.366;2023-04-04T12:31:32;93938.50;;;8.91;54.12
40205;BME280;26963;42.666;23.366;2023-04-04T12:33:59;93961.16;;;9.03;53.81
40205;BME280;26963;42.666;23.366;2023-04-04T12:36:28;93967.00;;;9.05;54.76
40205;BME280;26963;42.666;23.366;2023-04-04T12:39:04;93938.91;;;8.76;54.58
40205;BME280;26963;42.666;23.366;2023-04-04T12:41:31;93972.72;;;8.89;54.92
40205;BME280;26963;42.666;23.366;2023-04-04T12:44:04;93977.69;;;8.82;54.02
40205;BME280;26963;42.666;23.366;2023-04-04T12:46:37;93956.03;;;8.61;54.39
40205;BME280;26963;42.666;23.366;2023-04-04T12:49:09;93986.91;;;8.76;54.32
40205;BME280;26963;42.666;23.366;2023-04-04T12:51:36;93950.78;;;8.47;53.57
40205;BME280;26963;42.666;23.366;2023-04-04T12:54:06;93940.56;;;8.26;56.19
40205;BME280;26963;42.666;23.366;2023-04-04T12:56:33;93991.34;;;8.44;54.29
40205;BME280;26963;42.666;23.366;2023-04-04T12:59:03;93775.19;;;7.04;55.69
40205;BME280;26963;42.666;23.366;2023-04-04T13:01:32;93920.53;;;7.92;55.85
40205;BME280;26963;42.666;23.366;2023-04-04T13:04:02;93974.69;;;8.24;54.53
40205;BME280;26963;42.666;23.366;2023-04-04T13:06:31;93983.69;;;8.28;54.77
40205;BME280;26963;42.666;23.366;2023-04-04T13:08:57;93973.00;;;8.06;54.85
40205;BME280;26963;42.666;23.366;2023-04-04T13:11:23;94004.81;;;8.25;54.98
40205;BME280;26963;42.666;23.366;2023-04-04T13:13:59;94004.63;;;8.21;55.55